Weather at Piedmont Municipal Airport

Public forecast

Using degrees Fahrenheit for public forecast. Weather courtesy of forecast.io.

Closest aviation weather report (METAR) to Piedmont Municipal Airport

Closest report is Poplar Bluff Municipal Airport, 28.2 nm (52.2 km) SE. Retrieved 2022/01/21 06:53 UTC (19 minutes ago):

KPOF 210653Z AUTO 01009KT 10SM CLR M09/M14 A3054 RMK AO2 SLP351 T10941144

Closest aviation forecast (TAF) to Piedmont Municipal Airport

Closest forecast is Cape Girardeau Regional Airport, 55.0 nm (101.8 km) E. Retrieved 2022/01/21 06:22 UTC (50 minutes ago):

TAF KCGI 210520Z 2106/2206 36008KT P6SM FEW040 FM211400 03008KT P6SM SKC FM220000 04004KT P6SM SKC